Enter the Airport ICAO Code

Search by Airport or City

Current Weather

LEVX | Vigo–Peinador Airport

Vigo, Galicia, Spain

Last Update 21 Minutes Ago

Clear Sky

Temperature of 08 ºC

Light Winds from NorthWest

Temperature

08 ºC

Dew Point Temperature

04 ºC

Relative Humidity

75.89 %

Wind Direction

NorthWest (310º, Ranging from 260º to 020º)

Wind Velocity

6 km/h (03 kt)

Gusts

None

Visibility

No Significant Reductions

Sea Level Pressure

1020 hPa (Hectopascals)

Layers of Clouds

None

METAR LEVX 022230Z 31003KT 260V020 CAVOK 08/04 Q1020 NOSIG

Weather Forecast

LEVX | Vigo–Peinador Airport

Vigo, Galicia, Spain

Forecast valid for the next 19 Hours

From now on it is expected:

Clear Sky

Light to Moderate Winds from North

In 11 hours it is expected the begining of 2 hours with intermittent periods of:

Mostly Cloudy Sky

In 10 to 13 hours it is expected the begining of:

Moderate Winds from West

In 13 hours it is expected the begining of 6 hours with intermittent periods of:

Rain

Moderate Winds from West with Gusts

Maximum Temperature

10 ºC in 16 Hours

Minimum Temperature

03 ºC in 9 Hours

TAF LEVX 021700Z 0218/0318 02009KT CAVOK TX10/0315Z TN03/0308Z PROB40 TEMPO 0310/0312 BKN010 BECMG 0309/0312 25010KT PROB40 TEMPO 0312/0318 26015G25KT 3000 RA BKN010